Time;durP1;ratioP1;P1;durP2;ratioP2;P2;SDS_P1;SDS_P2;PMS_P1;PMS_P2;Temp;Humidity;BMP_temperature;BMP_pressure;BME280_temperature;BME280_humidity;BME280_pressure;Samples;Min_cycle;Max_cycle;Signal;HPM_P1;HPM_P2
2023/01/01 00:00:05;;;;;;;35.03;14.20;;;14.60;99.90;;;;;;5063576;28;20184;-78
2023/01/01 00:02:35;;;;;;;27.30;11.85;;;14.60;99.90;;;;;;5029965;28;20183;-78
2023/01/01 00:05:01;;;;;;;31.67;13.57;;;14.60;99.90;;;;;;5036703;28;20211;-77
2023/01/01 00:07:28;;;;;;;36.53;20.23;;;14.70;99.90;;;;;;5033319;28;20222;-82
2023/01/01 00:12:38;;;;;;;31.42;12.30;;;14.70;99.90;;;;;;5046285;28;20267;-77
2023/01/01 00:15:05;;;;;;;27.92;11.82;;;14.60;99.90;;;;;;5035445;28;20275;-77
2023/01/01 00:17:30;;;;;;;27.92;11.20;;;14.60;99.90;;;;;;5067557;28;20540;-77
2023/01/01 00:19:56;;;;;;;35.95;16.27;;;14.70;99.90;;;;;;5048700;28;20191;-78
2023/01/01 00:22:22;;;;;;;33.50;12.65;;;14.70;99.90;;;;;;5018057;28;20196;-78
2023/01/01 00:24:48;;;;;;;29.40;13.18;;;14.70;99.90;;;;;;5027732;28;20188;-78
2023/01/01 00:27:14;;;;;;;32.05;12.15;;;14.60;99.90;;;;;;5050251;28;20234;-78
2023/01/01 00:29:40;;;;;;;27.60;11.73;;;14.60;99.90;;;;;;5033689;28;20184;-77
2023/01/01 00:32:05;;;;;;;29.98;12.23;;;14.60;99.90;;;;;;5037231;28;20199;-77
2023/01/01 00:34:31;;;;;;;23.05;11.50;;;14.60;99.90;;;;;;5017615;28;20215;-77
2023/01/01 00:36:57;;;;;;;33.85;12.73;;;14.50;99.90;;;;;;5051724;28;20535;-77
2023/01/01 00:39:23;;;;;;;30.17;13.45;;;14.50;99.90;;;;;;5064576;28;20179;-77
2023/01/01 00:41:48;;;;;;;25.80;12.52;;;14.50;99.90;;;;;;5030036;28;20180;-77
2023/01/01 00:44:14;;;;;;;34.50;12.57;;;14.50;99.90;;;;;;5048769;28;20246;-78
2023/01/01 00:46:40;;;;;;;24.27;12.88;;;14.40;99.90;;;;;;5037551;28;20258;-79
2023/01/01 00:49:06;;;;;;;30.30;13.60;;;14.40;99.90;;;;;;5033195;28;20290;-77
2023/01/01 00:51:31;;;;;;;28.40;13.40;;;14.40;99.90;;;;;;5068376;28;20267;-77
2023/01/01 00:53:57;;;;;;;30.83;15.38;;;14.40;99.90;;;;;;5065563;28;20188;-81
2023/01/01 00:56:23;;;;;;;29.73;14.95;;;14.40;99.90;;;;;;5034947;28;20658;-77
2023/01/01 00:58:49;;;;;;;37.80;15.77;;;14.40;99.90;;;;;;5033714;28;20310;-78
2023/01/01 01:01:15;;;;;;;37.75;18.08;;;14.40;99.90;;;;;;5035014;28;20525;-77
2023/01/01 01:03:41;;;;;;;32.97;15.88;;;14.40;99.90;;;;;;5036053;28;20698;-78
2023/01/01 01:06:11;;;;;;;33.30;16.13;;;14.40;99.90;;;;;;5049300;28;20231;-78
2023/01/01 01:08:39;;;;;;;30.13;17.40;;;14.40;99.90;;;;;;5055579;28;20701;-77
2023/01/01 01:11:15;;;;;;;37.28;18.17;;;14.40;99.90;;;;;;5035795;28;20184;-77
2023/01/01 01:13:42;;;;;;;30.55;18.42;;;14.30;99.90;;;;;;5031626;28;20302;-77
2023/01/01 01:16:15;;;;;;;33.42;19.75;;;14.30;99.90;;;;;;5032252;28;20652;-77
2023/01/01 01:18:41;;;;;;;42.95;21.65;;;14.30;99.90;;;;;;5034815;28;20283;-77
2023/01/01 01:21:07;;;;;;;43.42;22.25;;;14.30;99.90;;;;;;5033737;28;20862;-77
2023/01/01 01:23:34;;;;;;;49.53;25.50;;;14.30;99.90;;;;;;5067367;28;20194;-77
2023/01/01 01:26:08;;;;;;;53.10;29.83;;;14.30;99.90;;;;;;5026215;28;20197;-77
2023/01/01 01:28:33;;;;;;;46.60;24.70;;;14.20;99.90;;;;;;5014161;28;20314;-78
2023/01/01 01:30:59;;;;;;;53.90;27.55;;;14.20;99.90;;;;;;5032323;28;20824;-77
2023/01/01 01:33:25;;;;;;;49.88;27.27;;;14.20;99.90;;;;;;5017562;28;20279;-78
2023/01/01 01:35:51;;;;;;;50.50;27.73;;;14.20;99.90;;;;;;5033072;28;20210;-77
2023/01/01 01:38:17;;;;;;;48.75;29.02;;;14.10;99.90;;;;;;5049427;28;20704;-77
2023/01/01 01:40:43;;;;;;;46.70;28.55;;;14.10;99.90;;;;;;5034094;28;20230;-78
2023/01/01 01:43:23;;;;;;;50.88;29.02;;;14.10;99.90;;;;;;5034940;28;20620;-77
2023/01/01 01:45:53;;;;;;;50.50;30.40;;;14.00;99.90;;;;;;5033717;28;20191;-78
2023/01/01 01:48:20;;;;;;;51.03;28.90;;;14.00;99.90;;;;;;5035004;28;20325;-78
2023/01/01 01:50:47;;;;;;;56.58;32.15;;;14.00;99.90;;;;;;5048982;28;20192;-77
2023/01/01 01:53:24;;;;;;;55.25;31.27;;;14.00;99.90;;;;;;5034961;28;20193;-77
2023/01/01 01:55:56;;;;;;;55.58;31.90;;;14.00;99.90;;;;;;5028468;28;20192;-77
2023/01/01 01:58:25;;;;;;;55.40;31.25;;;14.00;99.90;;;;;;5034871;28;20199;-77
2023/01/01 02:00:51;;;;;;;58.28;32.50;;;13.90;99.90;;;;;;5060208;28;20654;-78
2023/01/01 02:03:25;;;;;;;58.97;32.95;;;13.90;99.90;;;;;;5014142;28;20215;-77
2023/01/01 02:05:53;;;;;;;57.00;32.80;;;13.90;99.90;;;;;;5057156;28;20306;-77
2023/01/01 02:08:20;;;;;;;62.78;35.08;;;13.90;99.90;;;;;;5072730;28;20289;-78
2023/01/01 02:10:46;;;;;;;60.90;36.08;;;13.80;99.90;;;;;;5048941;28;20196;-78
2023/01/01 02:13:13;;;;;;;61.67;36.45;;;13.80;99.90;;;;;;5034621;28;20180;-77
2023/01/01 02:15:57;;;;;;;63.28;39.05;;;13.80;99.90;;;;;;5065797;28;20271;-77
2023/01/01 02:18:38;;;;;;;61.90;38.50;;;13.80;99.90;;;;;;5044153;28;20214;-77
2023/01/01 02:21:24;;;;;;;63.65;39.33;;;13.70;99.90;;;;;;5032620;28;20183;-78
2023/01/01 02:24:17;;;;;;;67.15;39.05;;;13.70;99.90;;;;;;5034604;28;20168;-78
2023/01/01 02:26:55;;;;;;;66.47;37.80;;;13.70;99.90;;;;;;5032158;28;20556;-78
2023/01/01 02:29:43;;;;;;;69.68;39.58;;;13.70;99.90;;;;;;5048880;28;20191;-78
2023/01/01 02:32:19;;;;;;;59.35;37.47;;;13.70;99.90;;;;;;5024538;28;20644;-78
2023/01/01 02:37:57;;;;;;;59.05;36.58;;;13.60;99.90;;;;;;5020497;28;20286;-78
2023/01/01 02:40:25;;;;;;;66.10;37.75;;;13.60;99.90;;;;;;5033216;28;20214;-78
2023/01/01 02:42:52;;;;;;;57.35;35.28;;;13.60;99.90;;;;;;5033158;28;20184;-78
2023/01/01 02:45:19;;;;;;;60.10;35.05;;;13.60;99.90;;;;;;5023385;28;20191;-78
2023/01/01 02:47:44;;;;;;;56.88;34.25;;;13.60;99.90;;;;;;5014035;28;20192;-79
2023/01/01 02:50:15;;;;;;;58.08;31.92;;;13.60;99.90;;;;;;5054418;28;20191;-78
2023/01/01 02:53:28;;;;;;;49.60;31.30;;;13.60;99.90;;;;;;5031339;28;20173;-78
2023/01/01 02:56:02;;;;;;;53.97;30.75;;;13.60;99.90;;;;;;4967901;28;20190;-78
2023/01/01 03:01:52;;;;;;;52.13;29.98;;;13.60;99.90;;;;;;5014155;28;20227;-78
2023/01/01 03:04:24;;;;;;;46.90;27.15;;;13.60;99.90;;;;;;5015447;28;20187;-78
2023/01/01 03:06:59;;;;;;;50.65;27.17;;;13.60;99.90;;;;;;5028841;28;20675;-78
2023/01/01 03:10:18;;;;;;;50.20;26.77;;;13.60;99.90;;;;;;5022389;28;20187;-78
2023/01/01 03:12:59;;;;;;;51.85;27.73;;;13.50;99.90;;;;;;4972335;28;20190;-78
2023/01/01 03:15:35;;;;;;;47.58;28.08;;;13.50;99.90;;;;;;4967408;28;20604;-79
2023/01/01 03:18:12;;;;;;;46.80;28.20;;;13.50;99.90;;;;;;5002627;28;20227;-79
2023/01/01 03:20:42;;;;;;;55.15;29.65;;;13.50;99.90;;;;;;5031638;28;20191;-78
2023/01/01 03:23:16;;;;;;;44.63;24.00;;;13.50;99.90;;;;;;5028457;28;20185;-75
2023/01/01 03:25:47;;;;;;;33.95;20.75;;;13.50;99.90;;;;;;5047593;28;20238;-78
2023/01/01 03:28:27;;;;;;;41.45;18.23;;;13.40;99.90;;;;;;5030384;28;20164;-76
2023/01/01 03:30:55;;;;;;;31.67;16.48;;;13.40;99.90;;;;;;5028009;28;20255;-78
2023/01/01 03:33:42;;;;;;;35.05;17.38;;;13.30;99.90;;;;;;5033173;28;20199;-79
2023/01/01 03:36:10;;;;;;;36.30;17.30;;;13.30;99.90;;;;;;5032002;28;20214;-77
2023/01/01 03:38:46;;;;;;;30.65;16.38;;;13.20;99.90;;;;;;5031758;28;20612;-79
2023/01/01 03:41:19;;;;;;;32.33;16.45;;;13.10;99.90;;;;;;5030704;28;20650;-75
2023/01/01 03:44:21;;;;;;;31.27;14.25;;;13.10;99.90;;;;;;5032899;28;20179;-75
2023/01/01 03:46:47;;;;;;;28.75;13.60;;;13.00;99.90;;;;;;5011676;28;20176;-76
2023/01/01 03:49:14;;;;;;;26.98;13.45;;;13.00;99.90;;;;;;5045518;28;20223;-76
2023/01/01 03:51:59;;;;;;;26.17;13.10;;;12.90;99.90;;;;;;5039355;28;20644;-76
2023/01/01 03:54:48;;;;;;;27.33;13.55;;;12.90;99.90;;;;;;5034349;28;20516;-75
2023/01/01 03:57:36;;;;;;;27.95;12.02;;;12.80;99.90;;;;;;5032719;28;20387;-76
2023/01/01 04:00:16;;;;;;;24.42;11.27;;;12.80;99.90;;;;;;5063663;28;20190;-76
2023/01/01 04:02:55;;;;;;;30.90;10.73;;;12.70;99.90;;;;;;5064783;28;20267;-75
2023/01/01 04:05:22;;;;;;;23.23;10.88;;;12.80;99.90;;;;;;5039410;28;20281;-76
2023/01/01 04:07:49;;;;;;;22.02;10.57;;;12.70;99.90;;;;;;5068599;28;20197;-76
2023/01/01 04:10:18;;;;;;;18.85;9.18;;;12.70;99.90;;;;;;5031442;28;20696;-76
2023/01/01 04:12:47;;;;;;;20.65;8.52;;;12.80;99.90;;;;;;5047860;28;20234;-76
2023/01/01 04:15:13;;;;;;;19.00;7.82;;;12.70;99.90;;;;;;5031440;28;20585;-76
2023/01/01 04:17:39;;;;;;;13.65;6.75;;;12.70;99.90;;;;;;5032738;28;20204;-76
2023/01/01 04:20:06;;;;;;;11.30;5.93;;;12.70;99.90;;;;;;5046434;28;20593;-76
2023/01/01 04:22:32;;;;;;;15.32;6.80;;;12.80;99.90;;;;;;5032392;28;20180;-76
2023/01/01 04:24:58;;;;;;;19.05;6.28;;;12.80;99.90;;;;;;5060098;28;20180;-75
2023/01/01 04:27:24;;;;;;;19.70;5.70;;;12.80;99.90;;;;;;5048052;28;20606;-76
2023/01/01 04:29:50;;;;;;;15.82;5.15;;;12.80;99.90;;;;;;5031110;28;20176;-75
2023/01/01 04:32:16;;;;;;;16.58;4.57;;;12.80;99.90;;;;;;5032782;28;20655;-76
2023/01/01 04:34:41;;;;;;;15.70;4.30;;;12.80;99.90;;;;;;5030422;28;20323;-77
2023/01/01 04:37:07;;;;;;;15.40;4.72;;;12.80;99.90;;;;;;5064715;28;20276;-77
2023/01/01 04:39:33;;;;;;;18.98;5.05;;;12.80;99.90;;;;;;5031539;28;20191;-76
2023/01/01 04:41:58;;;;;;;17.10;5.00;;;12.80;99.90;;;;;;5031470;28;20235;-76
2023/01/01 04:44:24;;;;;;;17.52;5.38;;;12.80;99.90;;;;;;5031213;28;20188;-76
2023/01/01 04:46:50;;;;;;;24.08;5.35;;;12.80;99.90;;;;;;5061345;28;20180;-76
2023/01/01 04:49:16;;;;;;;19.95;5.13;;;12.80;99.90;;;;;;5030957;28;20183;-76
2023/01/01 04:51:41;;;;;;;24.27;5.15;;;12.80;99.90;;;;;;5064091;28;20274;-76
2023/01/01 04:54:07;;;;;;;23.45;5.78;;;12.80;99.90;;;;;;5030467;28;20558;-77
2023/01/01 04:56:33;;;;;;;19.63;5.60;;;12.80;99.90;;;;;;5034839;28;20188;-75
2023/01/01 04:58:59;;;;;;;24.83;6.18;;;12.80;99.90;;;;;;5053799;28;20749;-78
2023/01/01 05:01:27;;;;;;;21.80;6.07;;;12.80;99.90;;;;;;5032984;28;20707;-76
2023/01/01 05:03:54;;;;;;;19.23;6.20;;;12.80;99.90;;;;;;5016261;28;20227;-75
2023/01/01 05:06:20;;;;;;;24.48;6.70;;;12.80;99.90;;;;;;5065400;28;20252;-78
2023/01/01 05:08:48;;;;;;;21.23;6.95;;;12.80;99.90;;;;;;5035359;28;20640;-78
2023/01/01 05:11:19;;;;;;;20.92;6.10;;;12.70;99.90;;;;;;5020750;28;20192;-78
2023/01/01 05:13:47;;;;;;;18.48;5.38;;;12.80;99.90;;;;;;5046183;28;20180;-79
2023/01/01 05:16:16;;;;;;;21.38;5.60;;;12.80;99.90;;;;;;5066455;28;20195;-76
2023/01/01 05:18:43;;;;;;;18.58;4.97;;;12.70;99.90;;;;;;5035345;28;20199;-77
2023/01/01 05:21:14;;;;;;;16.77;4.18;;;12.80;99.90;;;;;;5033828;28;20203;-77
2023/01/01 05:23:41;;;;;;;16.88;4.70;;;12.70;99.90;;;;;;5035658;28;20208;-76
2023/01/01 05:26:11;;;;;;;11.50;3.95;;;12.70;99.90;;;;;;5032048;28;20184;-77
2023/01/01 05:28:38;;;;;;;16.05;4.20;;;12.70;99.90;;;;;;5053144;28;20250;-78
2023/01/01 05:31:09;;;;;;;10.35;3.17;;;12.80;99.90;;;;;;5063872;28;20249;-78
2023/01/01 05:33:35;;;;;;;16.95;3.60;;;12.80;99.90;;;;;;5035169;28;20202;-77
2023/01/01 05:36:03;;;;;;;14.13;3.25;;;12.80;99.90;;;;;;5034145;28;20238;-76
2023/01/01 05:38:28;;;;;;;7.85;3.25;;;12.80;99.90;;;;;;5031362;28;20219;-77
2023/01/01 05:40:54;;;;;;;14.73;3.78;;;12.80;99.90;;;;;;5031403;28;20183;-78
2023/01/01 05:43:20;;;;;;;15.82;3.75;;;12.80;99.90;;;;;;5035816;28;20184;-77
2023/01/01 05:45:46;;;;;;;10.60;3.35;;;12.80;99.90;;;;;;5033429;28;20265;-76
2023/01/01 05:48:12;;;;;;;15.70;3.90;;;12.80;99.90;;;;;;5034108;28;20188;-77
2023/01/01 05:50:37;;;;;;;17.90;3.45;;;12.80;99.90;;;;;;5033117;28;20188;-76
2023/01/01 05:53:03;;;;;;;15.05;3.40;;;12.80;99.90;;;;;;5029133;28;20228;-76
2023/01/01 05:55:29;;;;;;;15.65;3.50;;;12.80;99.90;;;;;;5038423;28;20192;-76
2023/01/01 05:57:56;;;;;;;13.27;4.05;;;12.80;99.90;;;;;;5033110;28;20667;-77
2023/01/01 06:00:22;;;;;;;14.25;3.22;;;12.80;99.90;;;;;;5033503;28;20205;-77
2023/01/01 06:02:52;;;;;;;11.48;2.90;;;12.80;99.90;;;;;;5032624;28;20194;-77
2023/01/01 06:05:18;;;;;;;11.75;2.67;;;12.80;99.90;;;;;;5039715;28;20194;-77
2023/01/01 06:07:45;;;;;;;12.75;2.70;;;12.80;99.90;;;;;;5054890;28;20175;-76
2023/01/01 06:10:11;;;;;;;13.38;2.80;;;12.80;99.90;;;;;;5036645;28;20187;-76
2023/01/01 06:12:36;;;;;;;14.15;2.72;;;12.80;99.90;;;;;;5034297;28;20172;-76
2023/01/01 06:15:02;;;;;;;14.48;2.42;;;12.80;99.90;;;;;;5032326;28;20183;-78
2023/01/01 06:17:28;;;;;;;9.35;2.25;;;12.80;99.90;;;;;;5033376;28;20545;-78
2023/01/01 06:19:54;;;;;;;9.23;2.50;;;12.80;99.90;;;;;;5031332;28;20182;-76
2023/01/01 06:22:20;;;;;;;11.38;2.30;;;12.80;99.90;;;;;;5034047;28;20195;-79
2023/01/01 06:24:45;;;;;;;9.95;2.25;;;12.80;99.90;;;;;;5048239;28;20212;-77
2023/01/01 06:27:11;;;;;;;13.77;2.67;;;12.70;99.90;;;;;;5016553;28;20192;-76
2023/01/01 06:29:37;;;;;;;11.95;2.22;;;12.80;99.90;;;;;;5033175;28;20206;-77
2023/01/01 06:32:03;;;;;;;12.32;2.13;;;12.70;99.90;;;;;;5032870;28;20635;-78
2023/01/01 06:34:28;;;;;;;6.38;1.88;;;12.70;99.90;;;;;;5030108;28;20187;-76
2023/01/01 06:36:54;;;;;;;10.82;2.05;;;12.70;99.90;;;;;;5049333;28;20180;-76
2023/01/01 06:39:20;;;;;;;9.93;2.05;;;12.70;99.90;;;;;;5048383;28;20578;-75
2023/01/01 06:41:45;;;;;;;12.77;2.30;;;12.70;99.90;;;;;;5032730;28;20230;-75
2023/01/01 06:44:11;;;;;;;9.02;1.77;;;12.70;99.90;;;;;;5048447;28;20184;-78
2023/01/01 06:46:37;;;;;;;13.30;2.38;;;12.70;99.90;;;;;;5033139;28;20286;-78
2023/01/01 06:49:10;;;;;;;8.02;2.20;;;12.60;99.90;;;;;;5032661;28;20267;-78
2023/01/01 06:51:40;;;;;;;11.50;2.28;;;12.60;99.90;;;;;;5034239;28;20243;-78
2023/01/01 06:54:07;;;;;;;12.50;2.08;;;12.60;99.90;;;;;;5043986;28;20199;-76
2023/01/01 06:56:34;;;;;;;12.55;2.10;;;12.60;99.90;;;;;;5033539;28;20184;-78
2023/01/01 06:59:00;;;;;;;12.65;2.10;;;12.60;99.90;;;;;;5033085;28;20207;-81
2023/01/01 07:01:28;;;;;;;9.05;1.77;;;12.50;99.90;;;;;;5033255;28;20226;-78
2023/01/01 07:03:56;;;;;;;17.13;2.30;;;12.50;99.90;;;;;;5033634;28;20258;-77
2023/01/01 07:06:24;;;;;;;14.30;2.67;;;12.50;99.90;;;;;;5048767;28;20261;-77
2023/01/01 07:08:50;;;;;;;7.70;1.50;;;12.50;99.90;;;;;;5037744;28;20192;-77
2023/01/01 07:11:16;;;;;;;16.05;2.28;;;12.50;99.90;;;;;;5064334;28;20180;-77
2023/01/01 07:13:43;;;;;;;15.45;2.50;;;12.50;99.90;;;;;;5018815;28;20180;-77
2023/01/01 07:16:09;;;;;;;12.63;2.50;;;12.50;99.90;;;;;;5030568;28;20198;-77
2023/01/01 07:18:35;;;;;;;13.38;3.20;;;12.40;99.90;;;;;;5031048;28;20683;-77
2023/01/01 07:21:05;;;;;;;11.40;2.30;;;12.40;99.90;;;;;;5030964;28;20191;-78
2023/01/01 07:23:33;;;;;;;15.93;2.38;;;12.40;99.90;;;;;;5023751;28;20184;-82
2023/01/01 07:25:59;;;;;;;14.48;2.75;;;12.40;99.90;;;;;;5028959;28;20195;-78
2023/01/01 07:28:26;;;;;;;21.25;2.40;;;12.40;99.90;;;;;;5031104;28;20286;-78
2023/01/01 07:30:53;;;;;;;14.88;2.50;;;12.30;99.90;;;;;;5032426;28;20180;-77
2023/01/01 07:33:21;;;;;;;13.65;2.58;;;12.30;99.90;;;;;;5032965;28;20192;-78
2023/01/01 07:35:47;;;;;;;20.50;3.20;;;12.30;99.90;;;;;;5032062;28;20195;-77
2023/01/01 07:38:14;;;;;;;15.52;2.67;;;12.30;99.90;;;;;;5026134;28;20217;-78
2023/01/01 07:40:40;;;;;;;17.35;2.80;;;12.30;99.90;;;;;;5014475;28;20628;-78
2023/01/01 07:43:07;;;;;;;17.95;2.33;;;12.30;99.90;;;;;;5031010;28;20183;-77
2023/01/01 07:45:33;;;;;;;19.42;2.88;;;12.20;99.90;;;;;;5032212;28;20184;-78
2023/01/01 07:48:00;;;;;;;15.05;2.40;;;12.20;99.90;;;;;;5032799;28;20183;-78
2023/01/01 07:50:29;;;;;;;16.73;3.10;;;12.20;99.90;;;;;;5030839;28;20639;-79
2023/01/01 07:52:54;;;;;;;14.23;2.70;;;12.20;99.90;;;;;;5032662;28;20195;-78
2023/01/01 07:55:20;;;;;;;22.05;3.33;;;12.20;99.90;;;;;;5059342;28;20188;-78
2023/01/01 07:57:47;;;;;;;15.77;2.75;;;12.20;99.90;;;;;;5048246;28;20676;-78
2023/01/01 08:00:19;;;;;;;19.00;2.53;;;12.20;99.90;;;;;;5031676;28;20241;-78
2023/01/01 08:02:45;;;;;;;15.57;2.63;;;12.20;99.90;;;;;;5032532;28;20247;-79
2023/01/01 08:05:11;;;;;;;29.08;3.63;;;12.20;99.90;;;;;;5050901;28;20194;-78
2023/01/01 08:07:37;;;;;;;19.02;2.90;;;12.20;99.90;;;;;;5034045;28;20188;-78
2023/01/01 08:10:07;;;;;;;25.42;3.33;;;12.10;99.90;;;;;;5013926;28;20188;-77
2023/01/01 08:12:33;;;;;;;25.80;3.03;;;12.10;99.90;;;;;;5031596;28;20188;-78
2023/01/01 08:14:58;;;;;;;17.73;2.80;;;12.10;99.90;;;;;;5031606;28;20206;-78
2023/01/01 08:17:24;;;;;;;29.02;3.22;;;12.10;99.90;;;;;;5032408;28;20322;-77
2023/01/01 08:19:51;;;;;;;23.35;2.95;;;12.10;99.90;;;;;;5041088;28;21077;-77
2023/01/01 08:22:17;;;;;;;20.27;3.35;;;12.10;99.90;;;;;;5044740;28;20644;-77
2023/01/01 08:24:42;;;;;;;23.15;3.35;;;12.10;99.90;;;;;;5018958;28;20184;-77
2023/01/01 08:27:12;;;;;;;20.55;3.38;;;12.10;99.90;;;;;;5014632;28;20216;-77
2023/01/01 08:29:38;;;;;;;17.80;3.17;;;12.10;99.90;;;;;;5016401;28;20180;-78
2023/01/01 08:32:04;;;;;;;19.65;2.83;;;12.10;99.90;;;;;;5044366;28;20639;-77
2023/01/01 08:34:30;;;;;;;20.63;3.05;;;12.10;99.90;;;;;;5035419;28;20635;-78
2023/01/01 08:36:56;;;;;;;21.02;3.17;;;12.00;99.90;;;;;;5034240;28;20586;-78
2023/01/01 08:39:21;;;;;;;27.30;3.60;;;12.10;99.90;;;;;;5035190;28;20772;-79
2023/01/01 08:41:47;;;;;;;21.40;3.22;;;12.10;99.90;;;;;;5035222;28;20663;-78
2023/01/01 08:44:13;;;;;;;21.98;3.30;;;12.10;99.90;;;;;;5035121;28;20206;-78
2023/01/01 08:46:39;;;;;;;22.30;3.58;;;12.10;99.90;;;;;;5051362;28;20229;-78
2023/01/01 08:49:04;;;;;;;29.30;3.50;;;12.00;99.90;;;;;;5035221;28;20278;-78
2023/01/01 08:51:30;;;;;;;23.73;3.67;;;12.00;99.90;;;;;;5017924;28;20250;-78
2023/01/01 08:53:56;;;;;;;23.35;3.65;;;12.00;99.90;;;;;;5066369;28;20184;-78
2023/01/01 08:56:21;;;;;;;33.85;4.28;;;12.00;99.90;;;;;;5034032;28;20192;-79
2023/01/01 08:58:48;;;;;;;25.25;3.35;;;12.10;99.90;;;;;;5024335;28;20306;-78
2023/01/01 09:01:14;;;;;;;21.33;3.65;;;12.00;99.90;;;;;;5065283;28;20196;-77
2023/01/01 09:03:40;;;;;;;23.60;3.55;;;12.00;99.90;;;;;;5035975;28;20180;-80
2023/01/01 09:06:06;;;;;;;25.33;3.97;;;12.00;99.90;;;;;;5048676;28;20242;-78
2023/01/01 09:08:32;;;;;;;29.17;4.25;;;12.00;99.90;;;;;;5088137;28;20181;-79
2023/01/01 09:11:00;;;;;;;26.15;3.75;;;12.00;99.90;;;;;;5036323;28;20191;-78
2023/01/01 09:13:29;;;;;;;22.02;3.30;;;12.00;99.90;;;;;;5050165;28;20180;-82
2023/01/01 09:15:55;;;;;;;25.75;4.05;;;12.00;99.90;;;;;;5046223;28;20184;-78
2023/01/01 09:18:21;;;;;;;28.83;3.80;;;12.00;99.90;;;;;;5016680;28;20209;-82
2023/01/01 09:20:46;;;;;;;27.88;3.85;;;12.10;99.90;;;;;;5061293;28;20237;-78
2023/01/01 09:23:12;;;;;;;24.10;3.75;;;12.10;99.90;;;;;;5060381;28;20185;-79
2023/01/01 09:25:39;;;;;;;23.27;3.70;;;12.10;99.90;;;;;;5023213;28;20196;-78
2023/01/01 09:28:07;;;;;;;30.02;3.97;;;12.00;99.90;;;;;;5048334;28;20180;-78
2023/01/01 09:30:34;;;;;;;19.60;3.20;;;12.10;99.90;;;;;;5028513;28;20184;-79
2023/01/01 09:33:01;;;;;;;21.33;3.67;;;12.10;99.90;;;;;;5034312;28;20275;-83
2023/01/01 09:35:27;;;;;;;26.10;3.45;;;12.10;99.90;;;;;;5017777;28;20195;-78
2023/01/01 09:37:54;;;;;;;25.60;4.05;;;12.10;99.90;;;;;;5035452;28;20207;-78
2023/01/01 09:40:31;;;;;;;19.40;3.90;;;12.10;99.90;;;;;;5048379;28;20191;-78
2023/01/01 09:43:10;;;;;;;26.98;3.88;;;12.10;99.90;;;;;;5033209;28;20271;-79
2023/01/01 09:46:00;;;;;;;23.08;3.83;;;12.20;99.90;;;;;;5050092;28;20194;-78
2023/01/01 09:48:30;;;;;;;30.23;3.72;;;12.20;99.90;;;;;;5034196;28;20172;-78
2023/01/01 09:50:58;;;;;;;21.70;3.45;;;12.20;99.90;;;;;;5064948;28;20180;-78
2023/01/01 09:53:38;;;;;;;23.20;3.97;;;12.30;99.90;;;;;;5066952;28;20180;-78
2023/01/01 09:56:05;;;;;;;20.38;3.40;;;12.30;99.90;;;;;;5034271;28;20535;-77
2023/01/01 09:58:36;;;;;;;26.80;3.45;;;12.30;99.90;;;;;;5035652;28;20224;-77
2023/01/01 10:01:31;;;;;;;24.27;3.70;;;12.40;99.90;;;;;;5032097;28;20264;-82
2023/01/01 10:04:07;;;;;;;28.35;3.83;;;12.40;99.90;;;;;;5030661;28;20169;-78
2023/01/01 10:06:37;;;;;;;21.08;3.42;;;12.60;99.90;;;;;;5032949;28;20245;-77
2023/01/01 10:09:09;;;;;;;27.73;3.90;;;12.70;99.90;;;;;;5049533;28;20184;-78
2023/01/01 10:11:54;;;;;;;24.05;3.70;;;12.80;99.90;;;;;;5019391;28;20180;-78
2023/01/01 10:14:29;;;;;;;29.25;3.67;;;12.90;99.90;;;;;;5048926;28;20275;-78
2023/01/01 10:16:58;;;;;;;25.73;3.80;;;13.00;99.90;;;;;;5033222;28;20226;-77
2023/01/01 10:19:42;;;;;;;22.63;3.25;;;13.20;99.90;;;;;;5064461;28;20223;-78
2023/01/01 10:22:23;;;;;;;32.97;4.25;;;13.50;99.90;;;;;;5033093;28;20190;-79
2023/01/01 10:24:54;;;;;;;25.55;3.38;;;13.80;99.90;;;;;;5032371;28;20194;-81
2023/01/01 10:27:32;;;;;;;30.17;4.10;;;14.00;99.90;;;;;;5034187;28;20531;-78
2023/01/01 10:30:02;;;;;;;23.10;3.85;;;14.20;99.90;;;;;;5026649;28;20280;-79
2023/01/01 10:32:35;;;;;;;21.38;3.65;;;14.40;99.90;;;;;;5014293;28;20462;-78
2023/01/01 10:35:09;;;;;;;25.52;4.05;;;14.60;99.90;;;;;;5026313;28;20227;-78
2023/01/01 10:37:37;;;;;;;24.88;3.58;;;14.70;99.90;;;;;;5033076;28;20641;-79
2023/01/01 10:40:15;;;;;;;21.65;3.35;;;14.70;99.90;;;;;;5026247;28;20184;-78
2023/01/01 10:42:40;;;;;;;24.40;3.58;;;14.50;99.90;;;;;;5030313;28;20253;-79
2023/01/01 10:45:22;;;;;;;24.70;3.38;;;14.50;99.90;;;;;;5048468;28;20180;-78
2023/01/01 10:48:18;;;;;;;25.33;4.03;;;14.40;99.90;;;;;;5034270;28;20230;-79
2023/01/01 10:50:48;;;;;;;22.15;2.97;;;14.40;99.90;;;;;;5032744;28;20334;-78
2023/01/01 10:53:43;;;;;;;17.70;2.92;;;14.30;99.90;;;;;;5065991;28;20687;-78
2023/01/01 10:56:20;;;;;;;16.13;2.80;;;14.30;99.90;;;;;;5032865;28;20190;-78
2023/01/01 10:58:55;;;;;;;23.88;3.30;;;14.30;99.90;;;;;;5033900;28;20239;-76
2023/01/01 11:01:26;;;;;;;21.23;3.42;;;14.30;99.90;;;;;;5030062;28;20183;-77
2023/01/01 11:04:04;;;;;;;17.70;3.17;;;14.30;99.90;;;;;;5012708;28;20177;-77
2023/01/01 11:06:32;;;;;;;25.25;3.30;;;14.40;99.90;;;;;;5050929;28;20226;-77
2023/01/01 11:09:05;;;;;;;14.70;2.67;;;14.40;99.90;;;;;;5052595;28;20179;-80
2023/01/01 11:11:46;;;;;;;18.30;2.83;;;14.40;99.90;;;;;;5061633;28;20248;-77
2023/01/01 11:14:20;;;;;;;16.52;2.70;;;14.40;99.90;;;;;;5032425;28;20254;-78
2023/01/01 11:16:46;;;;;;;19.52;3.50;;;14.40;99.90;;;;;;5048824;28;20180;-76
2023/01/01 11:19:27;;;;;;;17.08;2.47;;;14.40;99.90;;;;;;5031848;28;20675;-78
2023/01/01 11:21:53;;;;;;;19.23;2.97;;;14.30;99.90;;;;;;5056102;28;20208;-77
2023/01/01 11:24:20;;;;;;;19.30;2.95;;;14.30;99.90;;;;;;5019790;28;20284;-76
2023/01/01 11:26:47;;;;;;;24.65;3.13;;;14.30;99.90;;;;;;5033651;28;20183;-77
2023/01/01 11:29:16;;;;;;;14.48;2.45;;;14.30;99.90;;;;;;5032100;28;20226;-78
2023/01/01 11:31:45;;;;;;;17.25;3.05;;;14.30;99.90;;;;;;5033099;28;20652;-77
2023/01/01 11:34:23;;;;;;;17.35;3.20;;;14.30;99.90;;;;;;5032019;28;20254;-77
2023/01/01 11:36:50;;;;;;;15.02;2.47;;;14.30;99.90;;;;;;5026236;28;20184;-78
2023/01/01 11:39:25;;;;;;;15.48;2.65;;;14.30;99.90;;;;;;5014550;28;20216;-77
2023/01/01 11:41:56;;;;;;;25.83;3.03;;;14.20;99.90;;;;;;5031759;28;20184;-78
2023/01/01 11:44:36;;;;;;;20.65;3.03;;;14.10;99.90;;;;;;5031840;28;20180;-79
2023/01/01 11:47:05;;;;;;;20.00;2.47;;;14.00;99.90;;;;;;5031958;28;20639;-78
2023/01/01 11:49:32;;;;;;;20.98;3.10;;;13.90;99.90;;;;;;5031726;28;20713;-77
2023/01/01 11:51:58;;;;;;;19.92;2.65;;;13.80;99.90;;;;;;5064521;28;20236;-77
2023/01/01 11:54:29;;;;;;;20.02;2.75;;;13.80;99.90;;;;;;5041860;28;20271;-77
2023/01/01 11:57:02;;;;;;;17.40;2.67;;;13.80;99.90;;;;;;5033016;28;20267;-79
2023/01/01 11:59:39;;;;;;;16.13;2.58;;;13.80;99.90;;;;;;5031724;28;20231;-77
2023/01/01 12:02:11;;;;;;;21.58;2.60;;;13.80;99.90;;;;;;5033080;28;20164;-79
2023/01/01 12:04:46;;;;;;;22.70;2.80;;;13.90;99.90;;;;;;5070423;28;20180;-77
2023/01/01 12:07:21;;;;;;;19.95;2.97;;;13.90;99.90;;;;;;5074455;28;20226;-78
2023/01/01 12:10:13;;;;;;;21.17;2.30;;;14.00;99.90;;;;;;5051608;28;20179;-77
2023/01/01 12:12:55;;;;;;;22.52;2.78;;;14.10;99.90;;;;;;5054835;28;20180;-80
2023/01/01 12:15:26;;;;;;;18.23;2.78;;;14.20;99.90;;;;;;5038171;28;20192;-78
2023/01/01 12:18:10;;;;;;;15.13;2.42;;;14.40;99.90;;;;;;5054661;28;20663;-77
2023/01/01 12:20:56;;;;;;;17.17;2.60;;;14.40;99.90;;;;;;5038126;28;20187;-78
2023/01/01 12:23:21;;;;;;;20.75;3.28;;;14.40;99.90;;;;;;5039467;28;20164;-77
2023/01/01 12:26:15;;;;;;;18.58;2.70;;;14.40;99.90;;;;;;5053700;28;20274;-77
2023/01/01 12:28:53;;;;;;;18.77;3.05;;;14.30;99.90;;;;;;5038115;28;20164;-78
2023/01/01 12:31:42;;;;;;;16.92;3.05;;;14.30;99.90;;;;;;5046389;28;20198;-77
2023/01/01 12:34:19;;;;;;;19.73;3.05;;;14.20;99.90;;;;;;5019761;28;20629;-78
2023/01/01 12:37:07;;;;;;;16.67;2.63;;;14.10;99.90;;;;;;5018363;28;20223;-77
2023/01/01 12:40:14;;;;;;;17.83;2.88;;;14.00;99.90;;;;;;5048696;28;20189;-77
2023/01/01 12:42:50;;;;;;;21.27;3.03;;;14.00;99.90;;;;;;5033712;28;20495;-77
2023/01/01 12:45:51;;;;;;;16.80;2.88;;;14.00;99.90;;;;;;5038235;28;20184;-78
2023/01/01 12:48:54;;;;;;;30.38;2.90;;;14.10;99.90;;;;;;5039210;28;20178;-77
2023/01/01 12:51:41;;;;;;;16.25;3.03;;;14.10;99.90;;;;;;5037796;28;20203;-77
2023/01/01 12:54:07;;;;;;;19.98;3.08;;;14.20;99.90;;;;;;5052916;28;20184;-77
2023/01/01 12:56:41;;;;;;;21.17;2.75;;;14.10;99.90;;;;;;5037893;28;20642;-78
2023/01/01 12:59:25;;;;;;;22.00;3.10;;;14.10;99.90;;;;;;5042711;28;20598;-78